Time;durP1;ratioP1;P1;durP2;ratioP2;P2;SDS_P1;SDS_P2;PMS_P1;PMS_P2;Temp;Humidity;BMP_temperature;BMP_pressure;BME280_temperature;BME280_humidity;BME280_pressure;Samples;Min_cycle;Max_cycle;Signal;HPM_P1;HPM_P2
2022/12/05 00:03:15;;;;;;;;;;;15.80;63.20;;;;;;10337010;28;89957;-66
2022/12/05 00:08:17;;;;;;;;;;;15.70;63.00;;;;;;10336766;28;91560;-65
2022/12/05 00:13:19;;;;;;;;;;;15.70;64.00;;;;;;10336727;28;90554;-65
2022/12/05 00:18:21;;;;;;;;;;;15.70;63.10;;;;;;10336376;28;88983;-65
2022/12/05 00:23:22;;;;;;;;;;;15.60;63.00;;;;;;10335966;28;88925;-65
2022/12/05 00:28:24;;;;;;;;;;;15.60;63.10;;;;;;10336571;28;88311;-65
2022/12/05 00:33:26;;;;;;;;;;;15.60;63.10;;;;;;10336320;28;90175;-66
2022/12/05 00:38:27;;;;;;;;;;;15.60;63.30;;;;;;10335740;28;89008;-65
2022/12/05 00:43:30;;;;;;;;;;;15.60;63.20;;;;;;10335145;28;89727;-65
2022/12/05 00:48:32;;;;;;;;;;;15.70;63.10;;;;;;10301197;28;89379;-65
2022/12/05 00:53:33;;;;;;;;;;;15.80;62.90;;;;;;10335846;28;88047;-65
2022/12/05 00:58:35;;;;;;;;;;;15.80;62.80;;;;;;10336521;28;89308;-65
2022/12/05 01:03:37;;;;;;;;;;;15.80;62.80;;;;;;10334797;28;90030;-65
2022/12/05 01:08:39;;;;;;;;;;;15.80;62.70;;;;;;10335799;28;90046;-65
2022/12/05 01:13:41;;;;;;;;;;;15.80;62.80;;;;;;10335320;28;90129;-66
2022/12/05 01:18:43;;;;;;;;;;;15.80;62.80;;;;;;10335644;28;89495;-66
2022/12/05 01:23:45;;;;;;;;;;;15.70;62.90;;;;;;10335376;28;88851;-66
2022/12/05 01:28:47;;;;;;;;;;;15.70;62.90;;;;;;10316186;28;89174;-66
2022/12/05 01:33:49;;;;;;;;;;;15.70;62.90;;;;;;10333557;28;90014;-65
2022/12/05 01:38:51;;;;;;;;;;;15.70;63.90;;;;;;10316150;28;90015;-66
2022/12/05 01:44:01;;;;;;;;;;;15.60;62.90;;;;;;10334074;28;90107;-66
2022/12/05 01:49:06;;;;;;;;;;;15.60;63.00;;;;;;10332923;28;89034;-65
2022/12/05 01:54:09;;;;;;;;;;;15.60;63.10;;;;;;10334227;28;90057;-65
2022/12/05 01:59:11;;;;;;;;;;;15.50;64.00;;;;;;10333411;28;90360;-66
2022/12/05 02:04:13;;;;;;;;;;;15.50;63.10;;;;;;10736871;22;89709;-65
2022/12/05 02:09:15;;;;;;;;;;;15.50;63.00;;;;;;10334715;28;88383;-65
2022/12/05 02:14:23;;;;;;;;;;;15.50;63.00;;;;;;10333874;28;90184;-65
2022/12/05 02:19:44;;;;;;;;;;;15.40;62.90;;;;;;10332343;28;90159;-66
2022/12/05 02:24:54;;;;;;;;;;;15.40;63.30;;;;;;10332967;28;90553;-66
2022/12/05 02:30:13;;;;;;;;;;;15.50;63.30;;;;;;10332836;28;89654;-66
2022/12/05 02:35:21;;;;;;;;;;;15.60;63.20;;;;;;10333125;28;88805;-66
2022/12/05 02:40:25;;;;;;;;;;;15.60;62.90;;;;;;10332579;28;88461;-65
2022/12/05 02:45:28;;;;;;;;;;;15.70;62.70;;;;;;10338315;28;91494;-66
2022/12/05 02:50:33;;;;;;;;;;;15.70;62.60;;;;;;10339676;28;90095;-66
2022/12/05 02:55:35;;;;;;;;;;;15.70;62.60;;;;;;10339594;28;88955;-66
2022/12/05 03:00:38;;;;;;;;;;;15.70;62.70;;;;;;10339553;28;88238;-66
2022/12/05 03:05:43;;;;;;;;;;;15.70;62.70;;;;;;10335143;28;88857;-66
2022/12/05 03:10:46;;;;;;;;;;;15.60;62.70;;;;;;10337381;28;88474;-66
2022/12/05 03:15:51;;;;;;;;;;;15.60;62.80;;;;;;10337572;28;89866;-66
2022/12/05 03:20:56;;;;;;;;;;;15.60;62.80;;;;;;10336563;28;89092;-66
2022/12/05 03:26:02;;;;;;;;;;;15.60;62.90;;;;;;10319796;28;89005;-66
2022/12/05 03:31:10;;;;;;;;;;;15.50;62.80;;;;;;10337118;28;89034;-66
2022/12/05 03:36:17;;;;;;;;;;;15.60;62.90;;;;;;10337714;28;89056;-66
2022/12/05 03:41:25;;;;;;;;;;;15.50;63.00;;;;;;10337820;28;89328;-65
2022/12/05 03:46:36;;;;;;;;;;;15.50;62.90;;;;;;10337681;28;89013;-66
2022/12/05 03:51:42;;;;;;;;;;;15.40;63.00;;;;;;10337973;28;89464;-66
2022/12/05 03:56:46;;;;;;;;;;;15.40;63.10;;;;;;10335492;28;89067;-65
2022/12/05 04:01:49;;;;;;;;;;;15.40;63.20;;;;;;10337470;28;89880;-65
2022/12/05 04:06:52;;;;;;;;;;;15.30;63.20;;;;;;10334566;28;89924;-65
2022/12/05 04:11:56;;;;;;;;;;;15.30;63.40;;;;;;10337706;28;89678;-65
2022/12/05 04:17:18;;;;;;;;;;;15.40;63.40;;;;;;10337807;28;88622;-65
2022/12/05 04:22:21;;;;;;;;;;;15.40;63.20;;;;;;10335902;28;88646;-65
2022/12/05 04:27:47;;;;;;;;;;;15.50;63.00;;;;;;10337184;28;89377;-65
2022/12/05 04:32:49;;;;;;;;;;;15.50;62.90;;;;;;10335142;28;88948;-65
2022/12/05 04:37:54;;;;;;;;;;;15.50;62.80;;;;;;10336613;28;90224;-65
2022/12/05 04:42:57;;;;;;;;;;;15.60;62.90;;;;;;10336766;28;88966;-65
2022/12/05 04:48:00;;;;;;;;;;;15.50;63.00;;;;;;10335984;28;89072;-65
2022/12/05 04:53:02;;;;;;;;;;;15.50;63.00;;;;;;10335993;28;89988;-65
2022/12/05 04:58:12;;;;;;;;;;;15.50;63.00;;;;;;10334237;28;89894;-65
2022/12/05 05:03:33;;;;;;;;;;;15.50;63.10;;;;;;10335203;28;89689;-65
2022/12/05 05:08:35;;;;;;;;;;;15.50;63.20;;;;;;10334076;28;88352;-65
2022/12/05 05:13:36;;;;;;;;;;;15.40;63.10;;;;;;10334395;28;88810;-65
2022/12/05 05:18:38;;;;;;;;;;;15.40;63.10;;;;;;10335152;28;89078;-65
2022/12/05 05:23:40;;;;;;;;;;;15.40;63.10;;;;;;10334702;28;89009;-66
2022/12/05 05:28:42;;;;;;;;;;;15.30;63.20;;;;;;10333481;28;89018;-66
2022/12/05 05:33:46;;;;;;;;;;;15.30;63.20;;;;;;10335202;28;88255;-65
2022/12/05 05:38:50;;;;;;;;;;;15.30;63.30;;;;;;10333687;28;90210;-65
2022/12/05 05:43:52;;;;;;;;;;;15.30;63.40;;;;;;10334876;28;89359;-65
2022/12/05 05:48:54;;;;;;;;;;;15.40;63.50;;;;;;10333663;28;89516;-66
2022/12/05 05:53:56;;;;;;;;;;;15.50;63.40;;;;;;10331898;28;88891;-66
2022/12/05 05:58:59;;;;;;;;;;;15.70;63.00;;;;;;10333092;28;88103;-66
2022/12/05 06:04:01;;;;;;;;;;;16.00;62.60;;;;;;10332726;28;90083;-65
2022/12/05 06:09:05;;;;;;;;;;;16.20;62.00;;;;;;10334085;28;90024;-66
2022/12/05 06:14:07;;;;;;;;;;;16.30;61.70;;;;;;10330786;28;89542;-66
2022/12/05 06:19:08;;;;;;;;;;;16.30;61.40;;;;;;10335903;28;88837;-66
2022/12/05 06:24:10;;;;;;;;;;;16.40;61.30;;;;;;10339334;28;88879;-65
2022/12/05 06:29:12;;;;;;;;;;;16.30;61.20;;;;;;10339904;28;89072;-64
2022/12/05 06:34:13;;;;;;;;;;;16.30;61.40;;;;;;10339953;28;88893;-65
2022/12/05 06:39:15;;;;;;;;;;;16.20;61.50;;;;;;10337273;28;89770;-65
2022/12/05 06:44:16;;;;;;;;;;;16.20;61.70;;;;;;10337773;28;90070;-66
2022/12/05 06:49:19;;;;;;;;;;;16.20;61.70;;;;;;10339887;28;89461;-64
2022/12/05 06:54:20;;;;;;;;;;;16.30;61.80;;;;;;10336398;28;89861;-65
2022/12/05 06:59:22;;;;;;;;;;;16.30;62.20;;;;;;10337147;28;89473;-64
2022/12/05 07:04:24;;;;;;;;;;;16.20;62.50;;;;;;10336245;28;90018;-66
2022/12/05 07:09:44;;;;;;;;;;;16.10;62.50;;;;;;10338203;28;90168;-65
2022/12/05 07:14:46;;;;;;;;;;;16.10;62.50;;;;;;10338809;28;89272;-65
2022/12/05 07:19:51;;;;;;;;;;;16.10;62.60;;;;;;10339105;28;90001;-65
2022/12/05 07:24:53;;;;;;;;;;;16.00;62.80;;;;;;10336674;28;89946;-65
2022/12/05 07:29:54;;;;;;;;;;;16.00;62.90;;;;;;10335822;28;89823;-64
2022/12/05 07:34:57;;;;;;;;;;;15.90;63.00;;;;;;10338352;28;89430;-65
2022/12/05 07:39:58;;;;;;;;;;;15.90;63.30;;;;;;10338198;28;90036;-65
2022/12/05 07:45:01;;;;;;;;;;;15.80;63.30;;;;;;10337909;28;88074;-65
2022/12/05 07:50:03;;;;;;;;;;;15.70;63.30;;;;;;10338763;28;90019;-65
2022/12/05 07:55:05;;;;;;;;;;;15.70;63.40;;;;;;10337054;28;89042;-65
2022/12/05 08:00:07;;;;;;;;;;;15.70;63.40;;;;;;10337733;28;89968;-65
2022/12/05 08:05:08;;;;;;;;;;;15.60;63.40;;;;;;10337884;28;88091;-65
2022/12/05 08:10:10;;;;;;;;;;;15.60;63.50;;;;;;10337109;28;90270;-65
2022/12/05 08:15:12;;;;;;;;;;;15.60;63.50;;;;;;10336767;28;88875;-64
2022/12/05 08:20:13;;;;;;;;;;;15.60;63.60;;;;;;10335934;28;89541;-65
2022/12/05 08:25:15;;;;;;;;;;;15.50;63.60;;;;;;10337124;28;90415;-64
2022/12/05 08:30:17;;;;;;;;;;;15.50;63.70;;;;;;10336522;28;89005;-64
2022/12/05 08:35:19;;;;;;;;;;;15.40;63.80;;;;;;10336935;28;89326;-64
2022/12/05 08:40:21;;;;;;;;;;;15.40;63.80;;;;;;10335893;28;88331;-65
2022/12/05 08:45:22;;;;;;;;;;;15.40;63.90;;;;;;10335679;28;88324;-65
2022/12/05 08:50:24;;;;;;;;;;;15.40;64.00;;;;;;10336383;28;89512;-66
2022/12/05 08:55:26;;;;;;;;;;;15.30;64.10;;;;;;10336000;28;89286;-64
2022/12/05 09:00:28;;;;;;;;;;;15.30;64.00;;;;;;10334871;28;88884;-65
2022/12/05 09:05:30;;;;;;;;;;;15.40;63.90;;;;;;10335081;28;88619;-65
2022/12/05 09:10:32;;;;;;;;;;;15.50;63.70;;;;;;10334335;28;90149;-65
2022/12/05 09:15:37;;;;;;;;;;;15.50;63.50;;;;;;10335365;28;88114;-66
2022/12/05 09:20:39;;;;;;;;;;;15.50;63.50;;;;;;10335809;28;89163;-66
2022/12/05 09:25:40;;;;;;;;;;;15.50;63.50;;;;;;10334514;28;88205;-65
2022/12/05 09:30:42;;;;;;;;;;;15.50;63.60;;;;;;10334693;28;89071;-65
2022/12/05 09:35:44;;;;;;;;;;;15.50;63.70;;;;;;10335057;28;88927;-65
2022/12/05 09:40:48;;;;;;;;;;;15.50;63.80;;;;;;10334724;28;89060;-65
2022/12/05 09:45:58;;;;;;;;;;;15.40;63.70;;;;;;10334095;28;87972;-65
2022/12/05 09:51:01;;;;;;;;;;;15.40;63.90;;;;;;10332652;28;90224;-65
2022/12/05 09:56:21;;;;;;;;;;;15.40;63.80;;;;;;10334750;28;89476;-65
2022/12/05 10:01:29;;;;;;;;;;;15.40;63.90;;;;;;10332674;28;89843;-65
2022/12/05 10:06:34;;;;;;;;;;;15.30;63.90;;;;;;10332873;28;89000;-65
2022/12/05 10:11:40;;;;;;;;;;;15.30;63.90;;;;;;10333636;28;89821;-64
2022/12/05 10:16:47;;;;;;;;;;;15.30;64.10;;;;;;10333541;28;92844;-64
2022/12/05 10:21:57;;;;;;;;;;;15.30;64.10;;;;;;10333665;28;88958;-64
2022/12/05 10:27:03;;;;;;;;;;;15.30;64.20;;;;;;10333610;28;89075;-64
2022/12/05 10:32:25;;;;;;;;;;;15.20;64.20;;;;;;10333101;28;89332;-65
2022/12/05 10:37:29;;;;;;;;;;;15.30;64.20;;;;;;10333715;28;88280;-64
2022/12/05 10:42:33;;;;;;;;;;;15.30;64.20;;;;;;10333221;28;89027;-65
2022/12/05 10:47:35;;;;;;;;;;;15.30;64.00;;;;;;10333691;28;90008;-65
2022/12/05 10:52:36;;;;;;;;;;;15.30;64.10;;;;;;10332039;28;89770;-65
2022/12/05 10:57:38;;;;;;;;;;;15.30;64.00;;;;;;10332482;28;89424;-65
2022/12/05 11:02:40;;;;;;;;;;;15.30;64.00;;;;;;10331476;28;89346;-65
2022/12/05 11:07:43;;;;;;;;;;;15.30;64.00;;;;;;10338988;28;88930;-66
2022/12/05 11:12:45;;;;;;;;;;;15.30;64.00;;;;;;10338556;28;90322;-65
2022/12/05 11:17:47;;;;;;;;;;;15.30;64.10;;;;;;10339511;28;90091;-65
2022/12/05 11:22:50;;;;;;;;;;;15.20;64.00;;;;;;10339395;28;88290;-64
2022/12/05 11:27:52;;;;;;;;;;;15.20;64.10;;;;;;10339333;28;88281;-65
2022/12/05 11:33:18;;;;;;;;;;;15.20;64.20;;;;;;10337149;28;89114;-65
2022/12/05 11:38:27;;;;;;;;;;;15.20;65.30;;;;;;10338437;28;90047;-64
2022/12/05 11:43:43;;;;;;;;;;;15.20;64.40;;;;;;10337816;28;89853;-65
2022/12/05 11:48:45;;;;;;;;;;;15.10;64.50;;;;;;10336389;28;89759;-65
2022/12/05 11:54:08;;;;;;;;;;;15.20;64.50;;;;;;10336207;28;88657;-65
2022/12/05 11:59:28;;;;;;;;;;;15.20;64.40;;;;;;10337218;28;88954;-65
2022/12/05 12:04:36;;;;;;;;;;;15.40;64.20;;;;;;10336751;28;89050;-65
2022/12/05 12:09:56;;;;;;;;;;;15.50;63.80;;;;;;10337362;28;88946;-65
2022/12/05 12:14:58;;;;;;;;;;;15.60;63.50;;;;;;10335122;28;88874;-65
2022/12/05 12:20:25;;;;;;;;;;;15.60;63.40;;;;;;10337943;28;88706;-65
2022/12/05 12:25:53;;;;;;;;;;;15.60;63.30;;;;;;10334617;28;89278;-65
2022/12/05 12:31:07;;;;;;;;;;;15.60;63.50;;;;;;10335696;28;90069;-66
2022/12/05 12:36:24;;;;;;;;;;;15.60;63.60;;;;;;10335237;28;90774;-65
2022/12/05 12:41:29;;;;;;;;;;;15.50;63.60;;;;;;10336591;28;90000;-64
2022/12/05 12:46:37;;;;;;;;;;;15.50;63.70;;;;;;10336109;28;89043;-65
2022/12/05 12:51:43;;;;;;;;;;;15.40;63.80;;;;;;10336094;28;89624;-66
2022/12/05 12:56:51;;;;;;;;;;;15.40;63.90;;;;;;10335957;28;90142;-65
2022/12/05 13:01:57;;;;;;;;;;;15.40;64.00;;;;;;10334058;28;88270;-66
2022/12/05 13:07:02;;;;;;;;;;;15.30;63.90;;;;;;10333806;28;89193;-66
2022/12/05 13:12:06;;;;;;;;;;;15.30;64.00;;;;;;10335288;28;88116;-65
2022/12/05 13:17:14;;;;;;;;;;;15.30;64.00;;;;;;10335872;28;90258;-66
2022/12/05 13:22:17;;;;;;;;;;;15.20;64.10;;;;;;10333591;28;89591;-66
2022/12/05 13:27:23;;;;;;;;;;;15.20;64.20;;;;;;10332538;28;90076;-66
2022/12/05 13:32:33;;;;;;;;;;;15.20;64.20;;;;;;10335141;28;90216;-64
2022/12/05 13:43:01;;;;;;;;;;;15.20;64.40;;;;;;10333713;28;90054;-66
2022/12/05 13:48:12;;;;;;;;;;;15.20;64.40;;;;;;10334726;28;88206;-65
2022/12/05 13:53:22;;;;;;;;;;;15.20;64.30;;;;;;10331604;28;109799;-66
2022/12/05 13:58:24;;;;;;;;;;;15.20;64.30;;;;;;10334397;28;89224;-66
2022/12/05 14:03:31;;;;;;;;;;;15.20;64.20;;;;;;10334517;28;89315;-66
2022/12/05 14:08:39;;;;;;;;;;;15.20;64.20;;;;;;10333786;28;88996;-66
2022/12/05 14:13:42;;;;;;;;;;;15.20;64.20;;;;;;10333196;28;90039;-66
2022/12/05 14:19:02;;;;;;;;;;;15.20;64.20;;;;;;10332136;28;90064;-66
2022/12/05 14:24:04;;;;;;;;;;;15.20;64.30;;;;;;10333059;28;89071;-66
2022/12/05 14:29:06;;;;;;;;;;;15.20;64.40;;;;;;10332864;28;90014;-66
2022/12/05 14:34:10;;;;;;;;;;;15.20;64.30;;;;;;10333044;28;90020;-65
2022/12/05 14:39:19;;;;;;;;;;;15.20;64.20;;;;;;10337220;28;90422;-66
2022/12/05 14:44:21;;;;;;;;;;;15.20;64.20;;;;;;10339056;28;90000;-66
2022/12/05 14:49:32;;;;;;;;;;;15.20;64.10;;;;;;10340389;28;88114;-66
2022/12/05 14:54:39;;;;;;;;;;;15.20;64.20;;;;;;10341123;28;89277;-64
2022/12/05 14:59:48;;;;;;;;;;;15.20;64.20;;;;;;10339716;28;88377;-65
2022/12/05 15:04:56;;;;;;;;;;;15.20;64.20;;;;;;10337389;28;89481;-65
2022/12/05 15:10:21;;;;;;;;;;;15.20;64.30;;;;;;10338366;28;89780;-65
2022/12/05 15:15:40;;;;;;;;;;;15.20;64.30;;;;;;10336178;28;90182;-65
2022/12/05 15:20:49;;;;;;;;;;;15.10;64.30;;;;;;10337846;28;89806;-65
2022/12/05 15:25:52;;;;;;;;;;;15.10;64.40;;;;;;10338588;28;90091;-65
2022/12/05 15:30:59;;;;;;;;;;;15.10;64.50;;;;;;10338852;28;88918;-65
2022/12/05 15:36:02;;;;;;;;;;;15.00;64.50;;;;;;10338214;28;90026;-65
2022/12/05 15:41:03;;;;;;;;;;;15.00;64.50;;;;;;10337443;28;89058;-64
2022/12/05 15:46:19;;;;;;;;;;;15.10;64.60;;;;;;10336907;28;89356;-65
2022/12/05 15:51:23;;;;;;;;;;;15.20;64.50;;;;;;10336953;28;89376;-65
2022/12/05 15:56:32;;;;;;;;;;;15.30;64.20;;;;;;10338709;28;89908;-66
2022/12/05 16:01:38;;;;;;;;;;;15.40;63.90;;;;;;10336603;28;90715;-65
2022/12/05 16:06:41;;;;;;;;;;;15.50;63.60;;;;;;10337310;28;88952;-65
2022/12/05 16:11:53;;;;;;;;;;;15.50;63.40;;;;;;10337199;28;90163;-66
2022/12/05 16:16:59;;;;;;;;;;;15.60;63.50;;;;;;10336918;28;88892;-66
2022/12/05 16:22:05;;;;;;;;;;;15.50;63.50;;;;;;10336695;28;88425;-65
2022/12/05 16:27:19;;;;;;;;;;;15.50;63.60;;;;;;10337341;28;90036;-65
2022/12/05 16:32:23;;;;;;;;;;;15.40;63.60;;;;;;10336299;28;90033;-65
2022/12/05 16:37:27;;;;;;;;;;;15.40;63.70;;;;;;10337461;28;88236;-64
2022/12/05 16:42:29;;;;;;;;;;;15.40;64.10;;;;;;10336120;28;90040;-64
2022/12/05 16:47:40;;;;;;;;;;;15.60;64.00;;;;;;10336561;28;89046;-66
2022/12/05 16:52:42;;;;;;;;;;;15.90;64.00;;;;;;10335538;28;89766;-65
2022/12/05 16:57:43;;;;;;;;;;;16.20;63.70;;;;;;10336448;28;90548;-64
2022/12/05 17:02:45;;;;;;;;;;;16.50;64.90;;;;;;10335032;28;89908;-65
2022/12/05 17:07:47;;;;;;;;;;;16.70;67.20;;;;;;10335252;28;90048;-63
2022/12/05 17:12:49;;;;;;;;;;;17.00;67.50;;;;;;10335951;28;88677;-63
2022/12/05 17:17:50;;;;;;;;;;;17.20;67.10;;;;;;10335022;28;88099;-65
2022/12/05 17:22:52;;;;;;;;;;;17.30;66.80;;;;;;10334463;28;89892;-66
2022/12/05 17:27:54;;;;;;;;;;;17.20;65.80;;;;;;10334064;28;88312;-66
2022/12/05 17:32:55;;;;;;;;;;;17.10;66.60;;;;;;10334397;28;88957;-65
2022/12/05 17:37:57;;;;;;;;;;;17.00;65.40;;;;;;10334082;28;89969;-66
2022/12/05 17:42:59;;;;;;;;;;;16.90;65.40;;;;;;10332365;28;89842;-65
2022/12/05 17:48:01;;;;;;;;;;;16.90;65.20;;;;;;10334430;28;90051;-65
2022/12/05 17:53:02;;;;;;;;;;;17.10;65.10;;;;;;10333746;28;88312;-65
2022/12/05 17:58:08;;;;;;;;;;;17.20;64.80;;;;;;10333697;28;89162;-65
2022/12/05 18:03:12;;;;;;;;;;;17.20;64.40;;;;;;10331732;28;88968;-65
2022/12/05 18:08:15;;;;;;;;;;;17.20;64.30;;;;;;10332241;28;89258;-66
2022/12/05 18:13:17;;;;;;;;;;;17.20;64.40;;;;;;10335319;28;89427;-65
2022/12/05 18:18:19;;;;;;;;;;;17.10;64.40;;;;;;10340623;28;89175;-65
2022/12/05 18:23:21;;;;;;;;;;;17.20;64.50;;;;;;10340343;28;90695;-65
2022/12/05 18:28:22;;;;;;;;;;;17.30;64.20;;;;;;10337475;28;88917;-65
2022/12/05 18:33:24;;;;;;;;;;;17.40;63.90;;;;;;10339280;28;90939;-66
2022/12/05 18:38:26;;;;;;;;;;;;;;;;;;10339687;28;89017;-64
2022/12/05 18:43:28;;;;;;;;;;;17.30;62.70;;;;;;10335834;28;119604;-65
2022/12/05 18:48:30;;;;;;;;;;;17.30;63.80;;;;;;10337736;28;90396;-67
2022/12/05 18:53:50;;;;;;;;;;;17.20;63.90;;;;;;10337450;28;89066;-68
2022/12/05 18:59:12;;;;;;;;;;;17.20;63.90;;;;;;10334686;28;90166;-68
2022/12/05 19:04:14;;;;;;;;;;;17.30;63.70;;;;;;10333801;28;90555;-67
2022/12/05 19:09:17;;;;;;;;;;;17.20;64.40;;;;;;10335296;28;91449;-68
2022/12/05 19:14:19;;;;;;;;;;;17.20;63.50;;;;;;10338863;28;89098;-68
2022/12/05 19:19:21;;;;;;;;;;;17.10;63.60;;;;;;10337304;28;89018;-68
2022/12/05 19:24:23;;;;;;;;;;;16.90;63.70;;;;;;10336698;28;89557;-68
2022/12/05 19:29:25;;;;;;;;;;;16.80;63.80;;;;;;10338629;28;89807;-68
2022/12/05 19:34:27;;;;;;;;;;;16.70;63.90;;;;;;10337003;28;89433;-67
2022/12/05 19:39:28;;;;;;;;;;;16.60;64.00;;;;;;10336817;28;89072;-68
2022/12/05 19:44:30;;;;;;;;;;;16.50;64.70;;;;;;10337779;28;89916;-68
2022/12/05 19:49:32;;;;;;;;;;;16.50;65.00;;;;;;10338166;28;88959;-69
2022/12/05 19:54:34;;;;;;;;;;;16.50;65.10;;;;;;10338882;28;89225;-69
2022/12/05 19:59:36;;;;;;;;;;;16.60;65.00;;;;;;10336687;28;88014;-68
2022/12/05 20:04:38;;;;;;;;;;;16.80;64.70;;;;;;10335170;28;89424;-67
2022/12/05 20:09:39;;;;;;;;;;;16.90;64.30;;;;;;10337105;28;89339;-66
2022/12/05 20:14:41;;;;;;;;;;;17.00;63.90;;;;;;10335318;28;89707;-66
2022/12/05 20:19:44;;;;;;;;;;;17.00;64.00;;;;;;10336660;28;88925;-65
2022/12/05 20:24:45;;;;;;;;;;;17.00;64.10;;;;;;10336631;28;89626;-65
2022/12/05 20:29:47;;;;;;;;;;;16.90;64.20;;;;;;10336363;28;88905;-65
2022/12/05 20:34:49;;;;;;;;;;;16.80;64.40;;;;;;10336682;28;89824;-66
2022/12/05 20:39:51;;;;;;;;;;;16.70;64.60;;;;;;10334654;28;89218;-65
2022/12/05 20:44:52;;;;;;;;;;;16.70;65.60;;;;;;10334708;28;90428;-65
2022/12/05 20:49:54;;;;;;;;;;;16.80;64.60;;;;;;10337219;28;89277;-65
2022/12/05 20:54:56;;;;;;;;;;;16.80;64.50;;;;;;10335734;28;90205;-66
2022/12/05 20:59:58;;;;;;;;;;;16.80;64.40;;;;;;10334872;28;89375;-66
2022/12/05 21:05:00;;;;;;;;;;;16.80;64.40;;;;;;10333409;28;90895;-66
2022/12/05 21:10:02;;;;;;;;;;;16.70;64.30;;;;;;10335759;28;89041;-66
2022/12/05 21:15:09;;;;;;;;;;;16.70;65.40;;;;;;10335629;28;90077;-66
2022/12/05 21:20:11;;;;;;;;;;;16.60;64.70;;;;;;10334321;28;90054;-66
2022/12/05 21:25:12;;;;;;;;;;;16.60;65.00;;;;;;10335360;28;89284;-68
2022/12/05 21:30:15;;;;;;;;;;;16.50;65.00;;;;;;10335623;28;88995;-68
2022/12/05 21:35:17;;;;;;;;;;;16.50;65.10;;;;;;10335012;28;88421;-69
2022/12/05 21:40:19;;;;;;;;;;;16.40;65.30;;;;;;10336355;28;89588;-69
2022/12/05 21:45:21;;;;;;;;;;;16.30;65.40;;;;;;10333936;28;88362;-68
2022/12/05 21:50:23;;;;;;;;;;;16.30;65.60;;;;;;10333041;28;90337;-68
2022/12/05 21:55:24;;;;;;;;;;;16.30;65.70;;;;;;10330870;28;90556;-68
2022/12/05 22:00:26;;;;;;;;;;;16.20;65.70;;;;;;10333526;28;88110;-68
2022/12/05 22:05:28;;;;;;;;;;;16.20;65.70;;;;;;10331874;28;89079;-68
2022/12/05 22:10:29;;;;;;;;;;;16.10;65.70;;;;;;10333331;28;88050;-69
2022/12/05 22:15:31;;;;;;;;;;;16.00;65.60;;;;;;10333063;28;88940;-67
2022/12/05 22:20:33;;;;;;;;;;;16.00;65.30;;;;;;10332626;28;90046;-68
2022/12/05 22:25:35;;;;;;;;;;;16.00;65.30;;;;;;10333545;28;88271;-68
2022/12/05 22:30:36;;;;;;;;;;;15.90;65.30;;;;;;10331780;28;89296;-68
2022/12/05 22:35:38;;;;;;;;;;;15.80;65.60;;;;;;10331564;28;89460;-68
2022/12/05 22:40:40;;;;;;;;;;;15.80;65.60;;;;;;10332061;28;89363;-67
2022/12/05 22:45:41;;;;;;;;;;;15.80;65.70;;;;;;10330638;28;89711;-67
2022/12/05 22:50:50;;;;;;;;;;;15.70;65.70;;;;;;10331959;28;90307;-67
2022/12/05 22:55:52;;;;;;;;;;;15.70;65.70;;;;;;10332446;28;90119;-67
2022/12/05 23:00:54;;;;;;;;;;;15.70;65.60;;;;;;10335678;28;89161;-68
2022/12/05 23:05:56;;;;;;;;;;;15.60;65.60;;;;;;10337997;28;89091;-67
2022/12/05 23:10:58;;;;;;;;;;;15.60;65.70;;;;;;10339154;28;90021;-68
2022/12/05 23:16:10;;;;;;;;;;;15.60;65.70;;;;;;10338434;28;88156;-68
2022/12/05 23:21:19;;;;;;;;;;;15.50;65.70;;;;;;10339291;28;88512;-68
2022/12/05 23:26:23;;;;;;;;;;;15.50;65.70;;;;;;10338018;28;89877;-69
2022/12/05 23:31:24;;;;;;;;;;;15.50;65.70;;;;;;10337934;28;90017;-68
2022/12/05 23:36:26;;;;;;;;;;;15.60;65.70;;;;;;10337419;28;89727;-68
2022/12/05 23:41:28;;;;;;;;;;;15.60;65.60;;;;;;10337950;28;89078;-67
2022/12/05 23:46:30;;;;;;;;;;;15.60;65.60;;;;;;10337454;28;89790;-68
2022/12/05 23:51:32;;;;;;;;;;;15.60;65.50;;;;;;10336146;28;88080;-68
2022/12/05 23:56:34;;;;;;;;;;;15.60;65.40;;;;;;10337516;28;91687;-68
